Time;durP1;ratioP1;P1;durP2;ratioP2;P2;SDS_P1;SDS_P2;PMS_P1;PMS_P2;Temp;Humidity;BMP_temperature;BMP_pressure;BME280_temperature;BME280_humidity;BME280_pressure;Samples;Min_cycle;Max_cycle;Signal;HPM_P1;HPM_P2
2022/04/16 00:00:55;;;;;;;11.90;11.20;;;;;;;;;;5065016;28;20024;-67
2022/04/16 00:03:24;;;;;;;11.75;11.05;;;;;;;;;;5061218;28;20048;-67
2022/04/16 00:05:55;;;;;;;11.82;11.13;;;;;;;;;;5062223;28;20040;-67
2022/04/16 00:08:22;;;;;;;11.65;10.95;;;;;;;;;;5067128;28;20036;-67
2022/04/16 00:10:48;;;;;;;12.13;11.23;;;;;;;;;;5064627;28;20028;-67
2022/04/16 00:13:14;;;;;;;12.13;11.23;;;;;;;;;;5061333;28;20103;-67
2022/04/16 00:15:40;;;;;;;11.95;11.25;;;;;;;;;;5044322;28;20032;-67
2022/04/16 00:18:06;;;;;;;11.90;11.07;;;;;;;;;;5063733;28;20040;-67
2022/04/16 00:20:34;;;;;;;12.27;11.50;;;;;;;;;;5064885;28;20037;-67
2022/04/16 00:22:59;;;;;;;12.10;11.40;;;;;;;;;;5060658;28;20123;-67
2022/04/16 00:25:25;;;;;;;12.30;11.50;;;;;;;;;;5045516;28;20032;-68
2022/04/16 00:27:52;;;;;;;11.98;11.25;;;;;;;;;;5061238;28;20040;-68
2022/04/16 00:30:18;;;;;;;11.85;11.15;;;;;;;;;;5044855;28;20541;-67
2022/04/16 00:32:44;;;;;;;12.38;11.45;;;;;;;;;;5061683;28;20045;-68
2022/04/16 00:35:11;;;;;;;11.63;10.93;;;;;;;;;;5045350;28;20040;-68
2022/04/16 00:37:37;;;;;;;11.82;11.00;;;;;;;;;;5065140;28;20399;-68
2022/04/16 00:40:03;;;;;;;11.98;11.20;;;;;;;;;;5063340;28;20033;-67
2022/04/16 00:42:37;;;;;;;11.80;11.10;;;;;;;;;;5068537;28;20033;-68
2022/04/16 00:45:03;;;;;;;11.95;11.20;;;;;;;;;;5067856;28;20036;-67
2022/04/16 00:47:29;;;;;;;12.30;11.50;;;;;;;;;;5070116;28;20081;-67
2022/04/16 00:49:55;;;;;;;11.82;11.10;;;;;;;;;;5046011;28;20036;-67
2022/04/16 00:52:21;;;;;;;11.85;11.15;;;;;;;;;;5068168;28;20036;-68
2022/04/16 00:54:50;;;;;;;11.35;10.65;;;;;;;;;;5045022;28;20032;-67
2022/04/16 00:57:16;;;;;;;12.13;11.40;;;;;;;;;;5067670;28;20028;-67
2022/04/16 00:59:42;;;;;;;11.70;11.00;;;;;;;;;;5062116;28;20036;-66
2022/04/16 01:02:09;;;;;;;12.45;11.55;;;;;;;;;;5067708;28;20033;-68
2022/04/16 01:04:35;;;;;;;12.25;11.45;;;;;;;;;;5062268;28;20495;-67
2022/04/16 01:07:01;;;;;;;11.80;11.10;;;;;;;;;;5067195;28;20037;-67
2022/04/16 01:09:27;;;;;;;11.70;11.00;;;;;;;;;;5067844;28;20044;-67
2022/04/16 01:11:52;;;;;;;11.63;10.98;;;;;;;;;;5064897;28;20060;-67
2022/04/16 01:14:19;;;;;;;12.07;11.18;;;;;;;;;;5064358;28;20139;-68
2022/04/16 01:16:45;;;;;;;11.93;11.13;;;;;;;;;;5046884;28;20492;-66
2022/04/16 01:19:11;;;;;;;12.15;11.40;;;;;;;;;;5068315;28;20503;-67
2022/04/16 01:21:37;;;;;;;12.57;11.68;;;;;;;;;;5059254;28;20033;-65
2022/04/16 01:24:05;;;;;;;11.55;10.85;;;;;;;;;;5065087;28;20039;-66
2022/04/16 01:26:31;;;;;;;11.95;11.25;;;;;;;;;;5067668;28;20158;-68
2022/04/16 01:28:57;;;;;;;11.95;10.90;;;;;;;;;;5047737;28;20535;-67
2022/04/16 01:31:22;;;;;;;11.95;11.20;;;;;;;;;;5066791;28;20115;-66
2022/04/16 01:33:48;;;;;;;11.88;11.18;;;;;;;;;;5067512;28;20032;-66
2022/04/16 01:36:13;;;;;;;11.73;10.98;;;;;;;;;;5065283;28;20154;-65
2022/04/16 01:38:39;;;;;;;11.70;11.00;;;;;;;;;;5066151;28;20043;-67
2022/04/16 01:41:05;;;;;;;12.15;11.27;;;;;;;;;;5067213;28;20021;-67
2022/04/16 01:43:31;;;;;;;12.55;11.65;;;;;;;;;;5065408;28;20037;-66
2022/04/16 01:45:56;;;;;;;11.77;11.07;;;;;;;;;;5065618;28;20033;-65
2022/04/16 01:48:27;;;;;;;12.43;11.52;;;;;;;;;;5063144;28;20182;-65
2022/04/16 01:50:54;;;;;;;12.25;11.45;;;;;;;;;;5068355;28;20024;-67
2022/04/16 01:53:21;;;;;;;11.90;11.10;;;;;;;;;;5064931;28;20396;-67
2022/04/16 01:55:46;;;;;;;11.80;11.00;;;;;;;;;;5066307;28;20258;-65
2022/04/16 01:58:13;;;;;;;12.43;11.63;;;;;;;;;;5066935;28;20044;-66
2022/04/16 02:00:39;;;;;;;12.45;11.43;;;;;;;;;;5060869;28;20299;-65
2022/04/16 02:03:05;;;;;;;11.98;11.27;;;;;;;;;;5066038;28;20086;-65
2022/04/16 02:05:31;;;;;;;11.90;11.18;;;;;;;;;;5047696;28;20040;-66
2022/04/16 02:07:57;;;;;;;12.32;11.63;;;;;;;;;;5065330;28;20052;-66
2022/04/16 02:10:22;;;;;;;12.38;11.50;;;;;;;;;;5068877;28;20043;-67
2022/04/16 02:12:48;;;;;;;13.27;12.25;;;;;;;;;;5060461;28;20036;-67
2022/04/16 02:15:14;;;;;;;12.15;11.43;;;;;;;;;;5063549;28;20032;-66
2022/04/16 02:17:40;;;;;;;13.10;12.20;;;;;;;;;;5068586;28;20078;-66
2022/04/16 02:20:07;;;;;;;12.77;11.98;;;;;;;;;;5069780;28;20391;-69
2022/04/16 02:22:40;;;;;;;13.32;12.43;;;;;;;;;;5069959;28;20106;-67
2022/04/16 02:25:08;;;;;;;12.52;11.73;;;;;;;;;;5067247;28;20081;-67
2022/04/16 02:27:34;;;;;;;12.63;11.82;;;;;;;;;;5069326;28;20036;-67
2022/04/16 02:30:20;;;;;;;12.80;12.00;;;;;;;;;;5069013;28;20060;-67
2022/04/16 02:32:53;;;;;;;13.18;12.30;;;;;;;;;;5061335;28;20491;-69
2022/04/16 02:35:19;;;;;;;13.52;12.30;;;;;;;;;;5069248;28;20137;-68
2022/04/16 02:37:46;;;;;;;12.50;11.70;;;;;;;;;;5068869;28;20390;-66
2022/04/16 02:40:13;;;;;;;12.48;11.70;;;;;;;;;;5066735;28;20235;-68
2022/04/16 02:42:41;;;;;;;12.77;11.90;;;;;;;;;;5069008;28;20032;-68
2022/04/16 02:47:54;;;;;;;12.15;11.35;;;;;;;;;;5058939;28;20123;-69
2022/04/16 02:50:21;;;;;;;12.52;11.70;;;;;;;;;;5068067;28;20021;-68
2022/04/16 02:52:46;;;;;;;12.27;11.45;;;;;;;;;;5068428;28;20090;-67
2022/04/16 02:55:16;;;;;;;12.57;11.68;;;;;;;;;;5063283;28;20170;-68
2022/04/16 02:57:42;;;;;;;;;;;;;;;;;;5068044;28;20028;-68
2022/04/16 03:00:10;;;;;;;12.52;11.73;;;;;;;;;;5068336;28;19916;-67
2022/04/16 03:02:37;;;;;;;11.73;11.02;;;;;;;;;;5063823;28;20047;-67
2022/04/16 03:05:06;;;;;;;12.65;11.75;;;;;;;;;;5066606;28;20480;-67
2022/04/16 03:07:32;;;;;;;;;;;;;;;;;;5068518;28;20503;-67
2022/04/16 03:09:58;;;;;;;12.80;11.95;;;;;;;;;;5048890;28;19959;-68
2022/04/16 03:12:23;;;;;;;12.52;11.63;;;;;;;;;;5067259;28;20040;-69
2022/04/16 03:17:34;;;;;;;13.07;12.10;;;;;;;;;;5068492;28;20032;-68
2022/04/16 03:20:04;;;;;;;13.15;12.05;;;;;;;;;;5063724;28;20040;-68
2022/04/16 03:22:34;;;;;;;12.13;11.32;;;;;;;;;;5066513;28;20123;-68
2022/04/16 03:25:03;;;;;;;12.88;11.98;;;;;;;;;;5067381;28;20032;-68
2022/04/16 03:27:28;;;;;;;;;;;;;;;;;;5066072;28;20146;-68
2022/04/16 03:29:54;;;;;;;12.57;11.68;;;;;;;;;;5066745;28;20026;-69
2022/04/16 03:32:20;;;;;;;12.63;11.80;;;;;;;;;;5062751;28;20384;-69
2022/04/16 03:34:45;;;;;;;12.50;11.60;;;;;;;;;;5067434;28;20090;-69
2022/04/16 03:37:11;;;;;;;12.82;12.02;;;;;;;;;;5065844;28;20051;-66
2022/04/16 03:39:37;;;;;;;12.52;11.73;;;;;;;;;;5067090;28;20041;-71
2022/04/16 03:42:03;;;;;;;12.75;11.82;;;;;;;;;;5067994;28;20192;-68
2022/04/16 03:44:29;;;;;;;12.65;11.65;;;;;;;;;;5067704;28;20047;-68
2022/04/16 03:46:55;;;;;;;12.80;11.80;;;;;;;;;;5066072;28;20542;-67
2022/04/16 03:49:21;;;;;;;13.38;12.38;;;;;;;;;;5065621;28;20037;-69
2022/04/16 03:51:47;;;;;;;13.00;12.10;;;;;;;;;;5066772;28;20020;-67
2022/04/16 03:59:59;;;;;;;13.25;12.10;;;;;;;;;;5059792;28;20645;-70
2022/04/16 04:02:25;;;;;;;12.60;11.68;;;;;;;;;;5058493;28;20052;-67
2022/04/16 04:04:51;;;;;;;12.88;12.07;;;;;;;;;;5064368;28;20036;-67
2022/04/16 04:07:17;;;;;;;12.68;11.88;;;;;;;;;;5065349;28;20079;-67
2022/04/16 04:09:44;;;;;;;13.20;12.20;;;;;;;;;;5067246;28;20058;-70
2022/04/16 04:12:10;;;;;;;12.85;11.95;;;;;;;;;;5063347;28;20310;-69
2022/04/16 04:14:41;;;;;;;13.05;12.15;;;;;;;;;;5058721;28;20048;-69
2022/04/16 04:17:08;;;;;;;12.90;12.00;;;;;;;;;;5062076;28;20048;-68
2022/04/16 04:19:45;;;;;;;12.60;11.80;;;;;;;;;;5066198;28;20161;-68
2022/04/16 04:22:12;;;;;;;12.25;11.45;;;;;;;;;;5062613;28;20089;-66
2022/04/16 04:24:39;;;;;;;12.52;11.60;;;;;;;;;;5062703;28;20040;-71
2022/04/16 04:27:06;;;;;;;12.05;11.25;;;;;;;;;;5057524;28;20492;-69
2022/04/16 04:29:33;;;;;;;12.63;11.75;;;;;;;;;;5066073;28;20043;-69
2022/04/16 04:31:59;;;;;;;13.27;12.27;;;;;;;;;;5061022;28;20033;-70
2022/04/16 04:34:24;;;;;;;12.70;11.85;;;;;;;;;;5044400;28;20058;-69
2022/04/16 04:36:50;;;;;;;12.55;11.65;;;;;;;;;;5059838;28;20494;-69
2022/04/16 04:39:16;;;;;;;12.85;11.85;;;;;;;;;;5048071;28;20480;-69
2022/04/16 04:41:43;;;;;;;12.93;12.02;;;;;;;;;;5063770;28;20040;-69
2022/04/16 04:44:12;;;;;;;13.40;12.50;;;;;;;;;;5063362;28;20048;-69
2022/04/16 04:46:38;;;;;;;;;;;;;;;;;;5065480;28;20036;-70
2022/04/16 04:49:07;;;;;;;12.38;11.57;;;;;;;;;;5066333;28;19958;-69
2022/04/16 04:51:36;;;;;;;12.90;12.07;;;;;;;;;;5067751;28;20032;-70
2022/04/16 04:54:06;;;;;;;13.10;12.20;;;;;;;;;;5066230;28;20067;-69
2022/04/16 04:56:32;;;;;;;13.05;12.20;;;;;;;;;;5066748;28;20515;-69
2022/04/16 04:58:58;;;;;;;13.20;12.30;;;;;;;;;;5067500;28;20036;-69
2022/04/16 05:01:24;;;;;;;13.55;12.48;;;;;;;;;;5064021;28;20043;-68
2022/04/16 05:03:50;;;;;;;12.70;11.80;;;;;;;;;;5065792;28;20190;-69
2022/04/16 05:06:16;;;;;;;12.32;11.52;;;;;;;;;;5067101;28;20543;-70
2022/04/16 05:08:43;;;;;;;13.35;12.35;;;;;;;;;;5066322;28;20049;-69
2022/04/16 05:11:09;;;;;;;12.60;11.80;;;;;;;;;;5064934;28;20047;-69
2022/04/16 05:13:35;;;;;;;13.27;12.25;;;;;;;;;;5066626;28;20122;-70
2022/04/16 05:16:01;;;;;;;13.18;12.18;;;;;;;;;;5046646;28;20110;-70
2022/04/16 05:18:26;;;;;;;13.60;12.70;;;;;;;;;;5066044;28;20300;-69
2022/04/16 05:20:52;;;;;;;13.10;12.20;;;;;;;;;;5066730;28;20419;-69
2022/04/16 05:23:17;;;;;;;13.57;12.48;;;;;;;;;;5064764;28;20036;-70
2022/04/16 05:25:43;;;;;;;12.60;11.70;;;;;;;;;;5067503;28;20035;-69
2022/04/16 05:28:09;;;;;;;12.80;12.00;;;;;;;;;;5070126;28;20127;-70
2022/04/16 05:30:44;;;;;;;12.70;11.80;;;;;;;;;;5069996;28;20055;-70
2022/04/16 05:34:18;;;;;;;12.73;11.88;;;;;;;;;;5045406;28;20041;-70
2022/04/16 05:36:02;;;;;;;12.98;12.07;;;;;;;;;;5062952;28;20032;-70
2022/04/16 05:38:28;;;;;;;13.30;12.35;;;;;;;;;;5069192;28;20032;-69
2022/04/16 05:40:54;;;;;;;13.15;12.25;;;;;;;;;;5067188;28;20037;-70
2022/04/16 05:43:19;;;;;;;12.95;12.15;;;;;;;;;;5064827;28;20120;-70
2022/04/16 05:45:45;;;;;;;13.38;12.45;;;;;;;;;;5063195;28;20035;-68
2022/04/16 05:48:10;;;;;;;13.90;12.43;;;;;;;;;;5047718;28;20043;-68
2022/04/16 05:50:37;;;;;;;12.95;11.95;;;;;;;;;;5067150;28;20517;-69
2022/04/16 05:53:06;;;;;;;13.23;12.23;;;;;;;;;;5058232;28;20028;-69
2022/04/16 05:55:34;;;;;;;12.70;11.90;;;;;;;;;;5068868;28;20068;-69
2022/04/16 05:58:00;;;;;;;13.68;12.60;;;;;;;;;;5067961;28;20028;-68
2022/04/16 06:00:26;;;;;;;13.70;12.75;;;;;;;;;;5067131;28;20040;-70
2022/04/16 06:02:51;;;;;;;13.27;12.10;;;;;;;;;;5069612;28;20036;-69
2022/04/16 06:05:17;;;;;;;13.75;12.82;;;;;;;;;;5069356;28;20028;-71
2022/04/16 06:07:43;;;;;;;13.48;12.48;;;;;;;;;;5067508;28;20270;-70
2022/04/16 06:10:08;;;;;;;13.73;12.82;;;;;;;;;;5069151;28;20060;-71
2022/04/16 06:12:34;;;;;;;13.77;12.77;;;;;;;;;;5069603;28;20036;-69
2022/04/16 06:15:00;;;;;;;14.57;13.25;;;;;;;;;;5073518;28;20040;-69
2022/04/16 06:17:25;;;;;;;13.25;12.35;;;;;;;;;;5067070;28;20525;-69
2022/04/16 06:19:51;;;;;;;13.45;12.52;;;;;;;;;;5066748;28;20029;-70
2022/04/16 06:22:17;;;;;;;13.15;12.27;;;;;;;;;;5072650;28;20078;-69
2022/04/16 06:24:42;;;;;;;13.50;12.45;;;;;;;;;;5075461;28;20042;-71
2022/04/16 06:27:09;;;;;;;13.73;12.48;;;;;;;;;;5070180;28;20059;-69
2022/04/16 06:29:34;;;;;;;13.43;12.45;;;;;;;;;;5074222;28;20598;-68
2022/04/16 06:32:00;;;;;;;13.50;12.50;;;;;;;;;;5050117;28;20052;-69
2022/04/16 06:34:27;;;;;;;13.43;12.23;;;;;;;;;;5069850;28;20032;-69
2022/04/16 06:36:53;;;;;;;13.32;12.43;;;;;;;;;;5067460;28;20032;-70
2022/04/16 06:39:18;;;;;;;13.15;12.25;;;;;;;;;;5069030;28;20052;-69
2022/04/16 06:41:44;;;;;;;12.70;11.80;;;;;;;;;;5069432;28;20039;-70
2022/04/16 06:44:10;;;;;;;12.43;11.63;;;;;;;;;;5055230;28;20095;-69
2022/04/16 06:46:35;;;;;;;12.98;12.07;;;;;;;;;;5069867;28;20315;-70
2022/04/16 06:49:01;;;;;;;13.10;12.13;;;;;;;;;;5071163;28;20250;-69
2022/04/16 06:51:27;;;;;;;12.45;11.65;;;;;;;;;;5070032;28;20395;-68
2022/04/16 06:53:53;;;;;;;13.20;12.30;;;;;;;;;;5070604;28;20032;-69
2022/04/16 06:56:18;;;;;;;13.05;12.15;;;;;;;;;;5070607;28;20082;-69
2022/04/16 06:58:44;;;;;;;12.70;11.80;;;;;;;;;;5072546;28;20036;-70
2022/04/16 07:01:09;;;;;;;13.20;12.30;;;;;;;;;;5069695;28;20048;-68
2022/04/16 07:03:35;;;;;;;13.18;12.18;;;;;;;;;;5068154;28;20029;-68
2022/04/16 07:06:01;;;;;;;12.63;11.73;;;;;;;;;;5055649;28;20079;-70
2022/04/16 07:08:26;;;;;;;12.85;12.00;;;;;;;;;;5050951;28;20048;-69
2022/04/16 07:10:52;;;;;;;13.45;12.23;;;;;;;;;;5066027;28;20040;-69
2022/04/16 07:13:18;;;;;;;13.63;12.52;;;;;;;;;;5069334;28;20376;-70
2022/04/16 07:15:44;;;;;;;13.07;12.18;;;;;;;;;;5073772;28;20495;-69
2022/04/16 07:18:10;;;;;;;12.82;11.85;;;;;;;;;;5068555;28;20287;-69
2022/04/16 07:20:36;;;;;;;12.80;11.88;;;;;;;;;;5065748;28;20701;-68
2022/04/16 07:23:02;;;;;;;13.20;12.30;;;;;;;;;;5051667;28;20410;-67
2022/04/16 07:25:27;;;;;;;12.98;11.98;;;;;;;;;;5068539;28;20021;-68
2022/04/16 07:27:53;;;;;;;13.32;12.32;;;;;;;;;;5070860;28;20557;-68
2022/04/16 07:30:18;;;;;;;13.13;12.13;;;;;;;;;;5067140;28;20025;-68
2022/04/16 07:32:44;;;;;;;13.38;12.27;;;;;;;;;;5066610;28;20038;-68
2022/04/16 07:35:10;;;;;;;13.18;12.18;;;;;;;;;;5067941;28;20074;-68
2022/04/16 07:37:35;;;;;;;13.32;12.23;;;;;;;;;;5067335;28;20774;-67
2022/04/16 07:40:01;;;;;;;13.93;12.90;;;;;;;;;;5068326;28;20040;-70
2022/04/16 07:42:28;;;;;;;14.25;12.95;;;;;;;;;;5067763;28;20024;-68
2022/04/16 07:44:56;;;;;;;13.82;12.73;;;;;;;;;;5068256;28;20058;-66
2022/04/16 07:47:22;;;;;;;14.23;13.13;;;;;;;;;;5066480;28;20079;-67
2022/04/16 07:49:48;;;;;;;14.05;12.95;;;;;;;;;;5068073;28;20025;-68
2022/04/16 07:52:14;;;;;;;13.93;12.80;;;;;;;;;;5068071;28;20036;-67
2022/04/16 07:54:39;;;;;;;13.27;12.18;;;;;;;;;;5065564;28;20395;-68
2022/04/16 07:57:05;;;;;;;13.95;12.95;;;;;;;;;;5050489;28;20036;-68
2022/04/16 07:59:31;;;;;;;21.40;18.10;;;;;;;;;;5071317;28;20127;-68
2022/04/16 08:01:57;;;;;;;14.07;12.98;;;;;;;;;;5065897;28;20190;-67
2022/04/16 08:04:22;;;;;;;14.35;13.25;;;;;;;;;;5065779;28;20536;-67
2022/04/16 08:06:48;;;;;;;17.42;15.82;;;;;;;;;;5067682;28;20438;-68
2022/04/16 08:09:14;;;;;;;14.98;13.88;;;;;;;;;;5054554;28;20430;-68
2022/04/16 08:11:40;;;;;;;14.70;13.40;;;;;;;;;;5071227;28;20111;-67
2022/04/16 08:14:06;;;;;;;15.10;13.98;;;;;;;;;;5067058;28;20043;-69
2022/04/16 08:16:32;;;;;;;14.95;13.75;;;;;;;;;;5053135;28;20040;-68
2022/04/16 08:18:58;;;;;;;14.82;13.63;;;;;;;;;;5073628;28;20032;-68
2022/04/16 08:21:28;;;;;;;15.15;13.70;;;;;;;;;;5066709;28;20035;-68
2022/04/16 08:26:39;;;;;;;13.68;12.68;;;;;;;;;;5069995;28;20089;-68
2022/04/16 08:29:04;;;;;;;14.30;13.20;;;;;;;;;;5063964;28;20032;-68
2022/04/16 08:31:30;;;;;;;14.45;13.35;;;;;;;;;;5067027;28;20535;-68
2022/04/16 08:33:55;;;;;;;14.40;13.30;;;;;;;;;;5066964;28;20521;-69
2022/04/16 08:36:21;;;;;;;14.68;13.57;;;;;;;;;;5067384;28;20275;-69
2022/04/16 08:38:47;;;;;;;15.77;14.57;;;;;;;;;;5064819;28;20052;-69
2022/04/16 08:41:13;;;;;;;18.08;16.55;;;;;;;;;;5069194;28;20029;-68
2022/04/16 08:43:41;;;;;;;14.48;13.38;;;;;;;;;;5065734;28;20483;-68
2022/04/16 08:46:07;;;;;;;15.10;13.80;;;;;;;;;;5065583;28;20040;-68
2022/04/16 08:48:33;;;;;;;14.57;13.43;;;;;;;;;;5068289;28;20043;-68
2022/04/16 08:50:59;;;;;;;15.23;13.93;;;;;;;;;;5069622;28;20036;-67
2022/04/16 08:53:25;;;;;;;15.20;13.95;;;;;;;;;;5072885;28;20032;-67
2022/04/16 08:55:50;;;;;;;14.40;13.32;;;;;;;;;;5065213;28;20041;-68
2022/04/16 08:58:16;;;;;;;14.70;13.50;;;;;;;;;;5068736;28;20102;-69
2022/04/16 09:00:41;;;;;;;14.10;13.10;;;;;;;;;;5072945;28;20025;-69
2022/04/16 09:03:09;;;;;;;14.88;13.68;;;;;;;;;;5075003;28;20518;-68
2022/04/16 09:05:35;;;;;;;14.32;13.23;;;;;;;;;;5070980;28;20067;-67
2022/04/16 09:08:03;;;;;;;14.73;13.55;;;;;;;;;;5069072;28;20557;-68
2022/04/16 09:10:34;;;;;;;14.38;13.18;;;;;;;;;;5069942;28;20081;-67
2022/04/16 09:13:02;;;;;;;15.25;13.95;;;;;;;;;;5064806;28;20036;-68
2022/04/16 09:15:28;;;;;;;16.08;14.43;;;;;;;;;;5069484;28;20035;-68
2022/04/16 09:18:06;;;;;;;15.88;14.30;;;;;;;;;;5047669;28;20124;-68
2022/04/16 09:20:39;;;;;;;15.45;13.77;;;;;;;;;;5060021;28;20044;-67
2022/04/16 09:23:18;;;;;;;15.27;13.93;;;;;;;;;;5044996;28;20041;-68
2022/04/16 09:25:44;;;;;;;15.48;14.23;;;;;;;;;;5068272;28;20418;-68
2022/04/16 09:28:12;;;;;;;15.35;14.05;;;;;;;;;;5069912;28;20040;-69
2022/04/16 09:30:50;;;;;;;15.68;14.43;;;;;;;;;;5069690;28;20024;-68
2022/04/16 09:33:16;;;;;;;15.40;14.20;;;;;;;;;;5069725;28;20115;-68
2022/04/16 09:35:42;;;;;;;15.93;14.57;;;;;;;;;;5068414;28;20115;-68
2022/04/16 09:38:12;;;;;;;15.82;14.52;;;;;;;;;;5069746;28;20718;-69
2022/04/16 09:40:38;;;;;;;16.23;14.82;;;;;;;;;;5067570;28;20507;-69
2022/04/16 09:43:05;;;;;;;15.65;14.32;;;;;;;;;;5050595;28;20122;-69
2022/04/16 09:45:32;;;;;;;15.63;14.05;;;;;;;;;;5066574;28;20032;-68
2022/04/16 09:47:59;;;;;;;15.63;14.23;;;;;;;;;;5071487;28;20043;-68
2022/04/16 09:50:32;;;;;;;14.32;13.02;;;;;;;;;;5049739;28;20047;-67
2022/04/16 09:53:02;;;;;;;14.98;13.68;;;;;;;;;;5067720;28;20040;-68
2022/04/16 09:55:28;;;;;;;20.00;14.40;;;;;;;;;;5067181;28;20036;-66
2022/04/16 09:57:59;;;;;;;14.65;13.38;;;;;;;;;;5065505;28;20094;-69
2022/04/16 10:00:26;;;;;;;15.43;14.02;;;;;;;;;;5066982;28;20036;-67
2022/04/16 10:02:53;;;;;;;15.52;13.98;;;;;;;;;;5069849;28;20036;-69
2022/04/16 10:05:23;;;;;;;15.85;14.55;;;;;;;;;;5070623;28;20044;-66
2022/04/16 10:07:49;;;;;;;14.82;13.65;;;;;;;;;;5049568;28;20088;-68
2022/04/16 10:10:25;;;;;;;15.55;13.85;;;;;;;;;;5067126;28;20033;-67
2022/04/16 10:13:01;;;;;;;17.80;15.20;;;;;;;;;;5075471;28;20452;-68
2022/04/16 10:15:48;;;;;;;15.57;14.27;;;;;;;;;;5051684;28;20400;-68
2022/04/16 10:18:14;;;;;;;15.35;14.05;;;;;;;;;;5070978;28;20463;-68
2022/04/16 10:20:53;;;;;;;15.57;14.18;;;;;;;;;;5070424;28;20037;-67
2022/04/16 10:23:32;;;;;;;15.00;13.90;;;;;;;;;;5050433;28;20147;-67
2022/04/16 10:26:04;;;;;;;14.70;13.50;;;;;;;;;;5066028;28;20044;-65
2022/04/16 10:28:40;;;;;;;14.93;13.73;;;;;;;;;;5067223;28;20086;-68
2022/04/16 10:31:07;;;;;;;15.40;14.07;;;;;;;;;;5057585;28;20387;-68
2022/04/16 10:33:32;;;;;;;15.45;14.10;;;;;;;;;;5066156;28;20036;-67
2022/04/16 10:35:59;;;;;;;15.95;14.65;;;;;;;;;;5061895;28;20090;-67
2022/04/16 10:38:31;;;;;;;14.90;13.80;;;;;;;;;;5069216;28;20079;-68
2022/04/16 10:41:02;;;;;;;15.02;13.82;;;;;;;;;;5060140;28;20070;-66
2022/04/16 10:43:30;;;;;;;15.25;14.05;;;;;;;;;;5061222;28;20407;-69
2022/04/16 10:46:04;;;;;;;14.85;13.75;;;;;;;;;;5070194;28;20058;-69
2022/04/16 10:48:38;;;;;;;14.60;13.45;;;;;;;;;;5050250;28;20040;-69
2022/04/16 10:51:05;;;;;;;14.80;13.60;;;;;;;;;;5064806;28;20028;-68
2022/04/16 10:53:36;;;;;;;14.13;13.02;;;;;;;;;;5068442;28;20048;-66
2022/04/16 10:56:23;;;;;;;14.77;13.57;;;;;;;;;;5071347;28;20403;-69
2022/04/16 10:59:00;;;;;;;14.77;13.68;;;;;;;;;;5064713;28;20036;-68
2022/04/16 11:01:27;;;;;;;15.05;13.85;;;;;;;;;;5060657;28;20066;-69
2022/04/16 11:03:56;;;;;;;14.60;13.50;;;;;;;;;;5064457;28;20032;-67
2022/04/16 11:06:33;;;;;;;14.15;13.00;;;;;;;;;;5064368;28;20736;-69
2022/04/16 11:08:59;;;;;;;13.65;12.65;;;;;;;;;;5065053;28;20111;-69
2022/04/16 11:11:25;;;;;;;11.85;11.05;;;;;;;;;;5067725;28;20036;-69
2022/04/16 11:13:51;;;;;;;12.45;11.55;;;;;;;;;;5065036;28;20051;-69
2022/04/16 11:16:22;;;;;;;12.68;11.85;;;;;;;;;;5064112;28;20044;-69
2022/04/16 11:18:48;;;;;;;13.45;12.55;;;;;;;;;;5064632;28;20028;-67
2022/04/16 11:21:21;;;;;;;12.95;12.02;;;;;;;;;;5066931;28;20036;-68
2022/04/16 11:23:49;;;;;;;13.38;12.43;;;;;;;;;;5064394;28;20039;-68
2022/04/16 11:34:32;;;;;;;13.45;12.35;;;;;;;;;;5065749;28;20041;-67
2022/04/16 11:36:59;;;;;;;13.23;12.23;;;;;;;;;;5065886;28;20051;-70
2022/04/16 11:39:28;;;;;;;13.23;12.23;;;;;;;;;;5065851;28;20544;-67
2022/04/16 11:41:55;;;;;;;13.32;12.32;;;;;;;;;;5064645;28;20041;-68
2022/04/16 11:44:52;;;;;;;12.95;11.95;;;;;;;;;;5064826;28;20107;-67
2022/04/16 11:47:22;;;;;;;14.05;12.95;;;;;;;;;;5001017;28;20180;-68
2022/04/16 11:49:53;;;;;;;13.93;12.93;;;;;;;;;;4998146;28;20117;-68
2022/04/16 11:52:26;;;;;;;13.05;12.05;;;;;;;;;;4999423;28;20564;-67
2022/04/16 11:55:14;;;;;;;13.15;12.02;;;;;;;;;;5000626;28;20394;-68
2022/04/16 11:57:47;;;;;;;12.80;11.70;;;;;;;;;;5001389;28;20053;-68
2022/04/16 12:00:13;;;;;;;13.23;12.13;;;;;;;;;;5001053;28;20124;-68
2022/04/16 12:02:40;;;;;;;13.43;12.38;;;;;;;;;;5000305;28;20741;-68
2022/04/16 12:05:25;;;;;;;13.20;12.20;;;;;;;;;;5002222;28;20144;-67
2022/04/16 12:07:52;;;;;;;13.55;12.38;;;;;;;;;;4999179;28;20114;-68
2022/04/16 12:10:18;;;;;;;14.02;12.90;;;;;;;;;;4999616;28;20064;-67
2022/04/16 12:12:53;;;;;;;14.07;12.90;;;;;;;;;;5000887;28;20604;-67
2022/04/16 12:15:22;;;;;;;14.00;12.88;;;;;;;;;;5000898;28;20046;-67
2022/04/16 12:17:48;;;;;;;13.55;12.45;;;;;;;;;;4999002;28;20153;-67
2022/04/16 12:20:14;;;;;;;14.02;12.95;;;;;;;;;;4997543;28;20042;-69
2022/04/16 12:22:50;;;;;;;13.52;12.52;;;;;;;;;;5007194;28;20042;-66
2022/04/16 12:25:20;;;;;;;13.55;12.48;;;;;;;;;;5060831;28;20070;-65
2022/04/16 12:27:54;;;;;;;14.40;13.30;;;;;;;;;;5066108;28;20041;-67
2022/04/16 12:30:20;;;;;;;13.88;12.85;;;;;;;;;;5063654;28;20063;-68
2022/04/16 12:33:01;;;;;;;13.70;12.77;;;;;;;;;;5066548;28;20040;-66
2022/04/16 12:35:28;;;;;;;13.82;12.82;;;;;;;;;;5044841;28;20203;-67
2022/04/16 12:37:54;;;;;;;13.45;12.45;;;;;;;;;;5065668;28;20034;-67
2022/04/16 12:40:21;;;;;;;14.57;13.50;;;;;;;;;;5063945;28;20399;-66
2022/04/16 12:42:48;;;;;;;13.77;12.77;;;;;;;;;;5064921;28;20032;-68
2022/04/16 12:45:14;;;;;;;14.25;13.05;;;;;;;;;;5064867;28;20048;-68
2022/04/16 12:47:40;;;;;;;14.48;13.20;;;;;;;;;;5063597;28;20047;-67
2022/04/16 12:50:06;;;;;;;14.13;12.82;;;;;;;;;;5062758;28;20128;-68
2022/04/16 12:52:31;;;;;;;14.40;13.30;;;;;;;;;;5063377;28;20036;-68
2022/04/16 12:54:57;;;;;;;14.57;13.45;;;;;;;;;;5063268;28;20051;-67
2022/04/16 12:57:22;;;;;;;13.75;12.55;;;;;;;;;;5065711;28;20043;-67
2022/04/16 12:59:48;;;;;;;13.80;12.90;;;;;;;;;;5064179;28;20039;-69
2022/04/16 13:02:13;;;;;;;14.20;13.10;;;;;;;;;;5064892;28;20184;-68
2022/04/16 13:04:39;;;;;;;12.93;11.93;;;;;;;;;;5062324;28;20036;-67
2022/04/16 13:07:05;;;;;;;13.98;12.88;;;;;;;;;;5062865;28;20064;-69
2022/04/16 13:09:30;;;;;;;13.50;12.60;;;;;;;;;;5063542;28;20037;-67
2022/04/16 13:11:56;;;;;;;13.77;12.73;;;;;;;;;;5063532;28;20032;-68
2022/04/16 13:14:22;;;;;;;13.80;12.80;;;;;;;;;;5066190;28;20082;-66
2022/04/16 13:16:48;;;;;;;13.65;12.57;;;;;;;;;;5062011;28;20075;-66
2022/04/16 13:19:13;;;;;;;14.27;13.20;;;;;;;;;;5062468;28;20113;-67
2022/04/16 13:21:39;;;;;;;13.20;12.30;;;;;;;;;;5066726;28;20063;-68
2022/04/16 13:24:11;;;;;;;14.88;13.27;;;;;;;;;;5067328;28;20051;-67
2022/04/16 13:26:36;;;;;;;14.38;13.27;;;;;;;;;;5044700;28;20135;-67
2022/04/16 13:29:02;;;;;;;13.20;12.23;;;;;;;;;;5066629;28;20122;-67
2022/04/16 13:31:27;;;;;;;13.30;12.30;;;;;;;;;;5063105;28;20043;-67
2022/04/16 13:33:53;;;;;;;13.90;12.77;;;;;;;;;;5061753;28;20071;-68
2022/04/16 13:36:18;;;;;;;12.20;11.32;;;;;;;;;;5063357;28;20040;-68
2022/04/16 13:38:44;;;;;;;13.98;12.82;;;;;;;;;;5066563;28;20145;-67
2022/04/16 13:44:06;;;;;;;13.43;12.27;;;;;;;;;;5017064;28;20113;-67
2022/04/16 13:46:35;;;;;;;13.38;12.27;;;;;;;;;;5024213;28;20107;-68
2022/04/16 13:49:03;;;;;;;13.65;12.68;;;;;;;;;;5023495;28;20144;-67
2022/04/16 13:51:31;;;;;;;13.00;11.95;;;;;;;;;;5023364;28;20033;-68
2022/04/16 13:53:58;;;;;;;15.13;13.93;;;;;;;;;;5022398;28;20166;-67
2022/04/16 13:56:24;;;;;;;12.60;11.60;;;;;;;;;;5023574;28;20144;-68
2022/04/16 13:58:49;;;;;;;14.93;13.73;;;;;;;;;;5023510;28;20060;-66
2022/04/16 14:01:17;;;;;;;15.75;14.45;;;;;;;;;;5021746;28;20082;-67
2022/04/16 14:03:44;;;;;;;13.48;12.45;;;;;;;;;;5025517;28;20056;-67
2022/04/16 14:06:11;;;;;;;13.00;12.07;;;;;;;;;;5024334;28;20724;-68
2022/04/16 14:08:37;;;;;;;13.00;12.07;;;;;;;;;;5022674;28;20059;-69
2022/04/16 14:11:02;;;;;;;12.95;11.95;;;;;;;;;;5024029;28;20041;-68
2022/04/16 14:13:32;;;;;;;13.43;12.40;;;;;;;;;;5022886;28;20049;-68
2022/04/16 14:15:59;;;;;;;12.82;11.82;;;;;;;;;;5021067;28;20037;-66
2022/04/16 14:18:25;;;;;;;12.18;11.27;;;;;;;;;;5021879;28;20042;-68
2022/04/16 14:20:51;;;;;;;13.27;12.27;;;;;;;;;;5049310;28;20058;-68
2022/04/16 14:23:17;;;;;;;12.43;11.52;;;;;;;;;;5065916;28;20275;-68
2022/04/16 14:25:43;;;;;;;12.20;11.40;;;;;;;;;;5066310;28;20488;-67
2022/04/16 14:28:10;;;;;;;12.85;11.75;;;;;;;;;;5064431;28;20135;-67
2022/04/16 14:30:39;;;;;;;11.20;10.40;;;;;;;;;;5061947;28;20033;-70
2022/04/16 14:33:06;;;;;;;12.45;11.55;;;;;;;;;;5069118;28;20407;-67
2022/04/16 14:35:34;;;;;;;12.23;11.32;;;;;;;;;;5069716;28;20108;-68
2022/04/16 14:38:00;;;;;;;12.23;11.32;;;;;;;;;;5065523;28;20058;-67
2022/04/16 14:40:26;;;;;;;12.27;11.27;;;;;;;;;;5068809;28;20067;-68
2022/04/16 14:42:52;;;;;;;12.02;11.23;;;;;;;;;;5069964;28;20336;-68
2022/04/16 14:45:17;;;;;;;11.68;10.88;;;;;;;;;;5068803;28;20036;-68